Time;durP1;ratioP1;P1;durP2;ratioP2;P2;SDS_P1;SDS_P2;PMS_P1;PMS_P2;Temp;Humidity;BMP_temperature;BMP_pressure;BME280_temperature;BME280_humidity;BME280_pressure;Samples;Min_cycle;Max_cycle;Signal;HPM_P1;HPM_P2
2022/06/11 00:02:46;;;;;;;1.80;1.20;;;15.80;96.40;;;;;;6253158;28;20053;-85
2022/06/11 00:05:49;;;;;;;1.35;1.05;;;15.70;96.40;;;;;;6252802;28;20042;-85
2022/06/11 00:08:53;;;;;;;9.25;1.58;;;15.70;96.40;;;;;;6253509;28;20065;-87
2022/06/11 00:11:55;;;;;;;8.32;2.10;;;15.70;96.40;;;;;;6253132;28;20089;-85
2022/06/11 00:14:57;;;;;;;12.52;6.60;;;15.60;96.60;;;;;;6253734;28;20045;-85
2022/06/11 00:17:59;;;;;;;2.40;1.40;;;15.60;96.70;;;;;;6253061;28;20134;-88
2022/06/11 00:21:01;;;;;;;4.10;1.40;;;15.50;96.70;;;;;;6249376;28;20049;-83
2022/06/11 00:24:05;;;;;;;6.13;1.77;;;15.50;96.70;;;;;;6252436;28;20055;-84
2022/06/11 00:27:09;;;;;;;7.07;1.55;;;15.40;96.70;;;;;;6254603;28;20049;-86
2022/06/11 00:30:11;;;;;;;2.30;1.48;;;15.40;96.80;;;;;;6252736;28;20037;-86
2022/06/11 00:33:13;;;;;;;3.00;1.58;;;15.30;96.80;;;;;;6254052;28;20050;-88
2022/06/11 00:36:16;;;;;;;1.85;1.40;;;15.30;96.80;;;;;;6253324;28;20509;-86
2022/06/11 00:39:22;;;;;;;2.28;1.98;;;15.20;96.80;;;;;;6253994;28;20048;-85
2022/06/11 00:42:27;;;;;;;3.25;1.40;;;15.20;96.90;;;;;;6249898;28;20476;-85
2022/06/11 00:45:35;;;;;;;3.00;1.90;;;15.20;96.90;;;;;;6253913;28;20401;-83
2022/06/11 00:48:40;;;;;;;8.68;1.75;;;15.10;96.80;;;;;;6253745;28;20052;-87
2022/06/11 00:51:42;;;;;;;3.20;1.63;;;15.00;96.70;;;;;;6255200;28;20049;-85
2022/06/11 00:54:49;;;;;;;2.28;1.83;;;15.10;96.70;;;;;;6255229;28;20054;-85
2022/06/11 00:57:57;;;;;;;5.57;2.00;;;15.10;96.60;;;;;;6254956;28;20050;-86
2022/06/11 01:01:01;;;;;;;2.90;1.37;;;15.00;96.80;;;;;;6255014;28;20045;-86
2022/06/11 01:04:24;;;;;;;2.85;1.67;;;15.00;97.00;;;;;;6264652;28;20041;-84
2022/06/11 01:07:57;;;;;;;3.85;1.65;;;15.00;97.10;;;;;;6250368;28;20069;-85
2022/06/11 01:11:11;;;;;;;2.33;1.63;;;14.90;97.20;;;;;;6250293;28;20480;-85
2022/06/11 01:14:32;;;;;;;2.97;1.77;;;14.90;97.30;;;;;;6249165;28;20527;-85
2022/06/11 01:17:41;;;;;;;4.65;1.48;;;14.90;97.30;;;;;;6249530;28;20052;-86
2022/06/11 01:20:49;;;;;;;3.60;1.90;;;14.90;97.20;;;;;;6249383;28;20065;-84
2022/06/11 01:24:26;;;;;;;4.05;1.80;;;15.00;97.20;;;;;;6249585;28;20045;-85
2022/06/11 01:27:53;;;;;;;3.60;2.08;;;15.00;97.10;;;;;;6233305;28;20057;-85
2022/06/11 01:31:01;;;;;;;4.93;2.08;;;15.10;97.10;;;;;;6250060;28;20045;-84
2022/06/11 01:34:09;;;;;;;2.25;1.30;;;15.10;97.10;;;;;;6249136;28;20073;-84
2022/06/11 01:37:14;;;;;;;;;;;15.00;97.40;;;;;;6248993;28;20045;-85
2022/06/11 01:40:23;;;;;;;5.72;2.22;;;15.00;97.50;;;;;;6249426;28;19921;-82
2022/06/11 01:43:32;;;;;;;3.83;1.60;;;14.90;97.30;;;;;;6249534;28;20049;-84
2022/06/11 01:46:38;;;;;;;4.15;1.90;;;14.80;97.50;;;;;;6250025;28;20049;-84
2022/06/11 01:49:43;;;;;;;2.90;1.92;;;14.70;97.60;;;;;;6250023;28;20143;-85
2022/06/11 01:53:04;;;;;;;4.00;1.92;;;14.70;97.70;;;;;;6249540;28;20049;-84
2022/06/11 01:56:29;;;;;;;4.40;2.13;;;14.60;97.60;;;;;;6250298;28;20072;-84
2022/06/11 01:59:49;;;;;;;3.55;1.60;;;14.60;97.70;;;;;;6217011;28;20050;-83
2022/06/11 02:03:20;;;;;;;2.72;1.92;;;14.60;97.70;;;;;;6250064;28;20049;-85
2022/06/11 02:06:36;;;;;;;2.50;1.80;;;14.50;97.70;;;;;;6249830;28;20050;-85
2022/06/11 02:09:49;;;;;;;4.72;2.10;;;14.50;97.60;;;;;;6248794;28;20041;-84
2022/06/11 02:12:56;;;;;;;2.70;1.73;;;14.40;97.60;;;;;;6249141;28;20425;-86
2022/06/11 02:16:06;;;;;;;6.35;2.28;;;14.40;97.90;;;;;;6249392;28;20057;-85
2022/06/11 02:19:12;;;;;;;2.80;1.80;;;14.40;97.90;;;;;;6249629;28;20045;-85
2022/06/11 02:22:19;;;;;;;3.88;1.92;;;14.30;97.80;;;;;;6249354;28;20432;-84
2022/06/11 02:25:26;;;;;;;5.25;1.75;;;14.30;97.70;;;;;;6249029;28;20045;-85
2022/06/11 02:28:32;;;;;;;4.32;1.98;;;14.30;97.70;;;;;;6248630;28;20649;-86
2022/06/11 02:31:39;;;;;;;4.82;1.80;;;14.30;97.90;;;;;;6249094;28;20049;-86
2022/06/11 02:34:46;;;;;;;3.25;1.60;;;14.20;97.90;;;;;;6248616;28;20046;-86
2022/06/11 02:37:48;;;;;;;4.75;2.17;;;14.20;97.90;;;;;;6248121;28;20065;-82
2022/06/11 02:40:54;;;;;;;4.43;1.42;;;14.10;97.90;;;;;;6248497;28;20524;-85
2022/06/11 02:43:56;;;;;;;4.75;2.08;;;14.10;98.30;;;;;;6247230;28;20180;-87
2022/06/11 02:46:58;;;;;;;2.42;1.80;;;14.00;98.00;;;;;;6249238;28;20412;-85
2022/06/11 02:50:01;;;;;;;3.30;1.88;;;14.00;98.20;;;;;;6252311;28;20037;-86
2022/06/11 02:53:06;;;;;;;4.20;1.70;;;14.00;98.20;;;;;;6252854;28;20046;-85
2022/06/11 02:56:07;;;;;;;4.10;1.77;;;13.90;98.20;;;;;;6253438;28;20045;-85
2022/06/11 02:59:09;;;;;;;2.38;1.85;;;13.90;98.20;;;;;;6253546;28;20373;-84
2022/06/11 03:02:12;;;;;;;8.48;3.95;;;13.90;98.20;;;;;;6253082;28;20057;-83
2022/06/11 03:05:18;;;;;;;2.65;2.00;;;13.80;98.20;;;;;;6253144;28;20052;-84
2022/06/11 03:08:19;;;;;;;24.48;2.25;;;13.70;98.30;;;;;;6253510;28;20049;-84
2022/06/11 03:11:21;;;;;;;13.38;4.25;;;13.70;98.30;;;;;;6254165;28;20045;-84
2022/06/11 03:14:23;;;;;;;3.00;2.03;;;13.60;98.30;;;;;;6254039;28;20045;-85
2022/06/11 03:17:25;;;;;;;4.20;2.22;;;13.60;98.30;;;;;;6253793;28;20045;-85
2022/06/11 03:20:32;;;;;;;8.20;1.80;;;13.60;98.30;;;;;;6254326;28;20061;-84
2022/06/11 03:23:34;;;;;;;3.95;1.33;;;13.60;98.30;;;;;;6254347;28;20049;-85
2022/06/11 03:26:36;;;;;;;3.63;1.77;;;13.60;98.30;;;;;;6253665;28;20529;-84
2022/06/11 03:29:38;;;;;;;3.10;1.77;;;13.60;98.30;;;;;;6253387;28;20524;-84
2022/06/11 03:32:40;;;;;;;3.67;1.67;;;13.60;98.30;;;;;;6253854;28;20416;-85
2022/06/11 03:35:44;;;;;;;3.60;1.63;;;13.60;98.30;;;;;;6254897;28;20067;-86
2022/06/11 03:38:46;;;;;;;6.72;1.77;;;13.60;98.30;;;;;;6254345;28;20057;-87
2022/06/11 03:45:29;;;;;;;4.70;2.05;;;13.60;98.20;;;;;;6262720;23;20042;-81
2022/06/11 03:48:32;;;;;;;4.07;2.35;;;13.60;97.90;;;;;;6230666;28;20060;-81
2022/06/11 03:51:35;;;;;;;4.47;2.50;;;13.70;97.80;;;;;;6231017;28;20378;-81
2022/06/11 03:54:37;;;;;;;2.75;1.85;;;13.70;97.70;;;;;;6231128;28;20428;-81
2022/06/11 03:57:39;;;;;;;2.85;1.52;;;13.70;97.70;;;;;;6230940;28;20046;-82
2022/06/11 04:04:05;;;;;;;3.45;2.22;;;14.00;97.60;;;;;;6229474;28;20049;-81
2022/06/11 04:07:08;;;;;;;5.65;1.80;;;14.10;97.50;;;;;;6230092;28;20054;-82
2022/06/11 04:10:10;;;;;;;6.18;2.25;;;14.30;97.30;;;;;;6229061;28;20042;-82
2022/06/11 04:13:13;;;;;;;3.88;1.65;;;14.40;97.20;;;;;;6229501;28;20050;-82
2022/06/11 04:16:23;;;;;;;3.92;1.65;;;14.70;96.90;;;;;;6229013;28;20042;-82
2022/06/11 04:19:34;;;;;;;1.88;1.23;;;15.40;96.10;;;;;;6229236;28;20056;-82
2022/06/11 04:22:38;;;;;;;3.03;1.85;;;16.00;95.00;;;;;;6229896;28;20049;-81
2022/06/11 04:25:39;;;;;;;2.15;1.67;;;16.20;94.50;;;;;;6229086;28;20042;-81
2022/06/11 04:28:41;;;;;;;5.88;1.20;;;16.30;94.60;;;;;;6210023;28;20050;-81
2022/06/11 04:31:45;;;;;;;5.15;1.45;;;16.40;94.30;;;;;;6203656;28;20056;-81
2022/06/11 04:34:49;;;;;;;5.63;1.58;;;16.60;94.10;;;;;;6204542;28;20054;-81
2022/06/11 04:37:52;;;;;;;2.83;1.30;;;17.50;93.30;;;;;;6204597;28;20444;-82
2022/06/11 04:40:55;;;;;;;2.00;1.20;;;19.30;91.00;;;;;;6204681;28;20053;-82
2022/06/11 04:43:56;;;;;;;3.47;1.40;;;21.10;86.60;;;;;;6203505;28;20050;-82
2022/06/11 04:46:58;;;;;;;1.92;0.93;;;22.70;81.20;;;;;;6223846;28;20046;-82
2022/06/11 04:50:04;;;;;;;5.55;0.90;;;23.90;76.10;;;;;;6228149;28;20624;-82
2022/06/11 04:53:07;;;;;;;0.80;0.70;;;24.90;71.40;;;;;;6229211;28;20064;-82
2022/06/11 04:56:12;;;;;;;2.35;0.77;;;26.00;67.20;;;;;;6228951;28;20413;-82
2022/06/11 04:59:14;;;;;;;4.70;0.73;;;26.90;63.30;;;;;;6229383;28;20559;-82
2022/06/11 05:02:16;;;;;;;3.05;0.80;;;27.80;60.50;;;;;;6229778;28;20046;-82
2022/06/11 05:05:18;;;;;;;3.00;1.15;;;28.50;57.60;;;;;;6230940;28;20050;-82
2022/06/11 05:08:21;;;;;;;0.95;0.40;;;29.10;55.00;;;;;;6230346;28;20046;-82
2022/06/11 05:11:23;;;;;;;5.57;1.20;;;29.70;52.90;;;;;;6232298;28;20060;-83
2022/06/11 05:14:25;;;;;;;2.53;0.63;;;30.40;50.80;;;;;;6232190;28;20054;-83
2022/06/11 05:17:27;;;;;;;2.88;0.60;;;31.40;48.40;;;;;;6231423;28;20049;-83
2022/06/11 05:20:30;;;;;;;5.20;0.80;;;32.70;45.50;;;;;;6233619;28;20052;-83
2022/06/11 05:23:33;;;;;;;1.50;0.75;;;33.90;42.70;;;;;;6233308;28;20146;-83
2022/06/11 05:26:37;;;;;;;1.98;0.60;;;34.60;40.70;;;;;;6232475;28;20497;-83
2022/06/11 05:29:47;;;;;;;3.20;0.75;;;34.50;40.00;;;;;;6233201;28;20545;-83
2022/06/11 05:32:50;;;;;;;5.97;1.30;;;34.60;39.30;;;;;;6231852;28;20076;-82
2022/06/11 05:35:53;;;;;;;3.22;0.80;;;34.70;39.00;;;;;;6233055;28;20056;-82
2022/06/11 05:38:56;;;;;;;3.92;0.77;;;35.00;38.40;;;;;;6234973;28;20046;-82
2022/06/11 05:41:58;;;;;;;1.85;0.60;;;35.40;37.80;;;;;;6234019;28;20129;-82
2022/06/11 05:45:00;;;;;;;4.30;0.77;;;36.40;36.70;;;;;;6232768;28;20045;-82
2022/06/11 05:48:03;;;;;;;2.55;0.98;;;37.50;35.30;;;;;;6213865;28;20057;-82
2022/06/11 05:51:07;;;;;;;3.30;0.70;;;38.40;34.20;;;;;;6209265;28;20050;-83
2022/06/11 05:54:14;;;;;;;4.03;0.93;;;39.10;33.10;;;;;;6210338;28;20042;-83
2022/06/11 05:57:20;;;;;;;2.10;0.50;;;39.80;32.40;;;;;;6210448;28;20057;-83
2022/06/11 06:00:24;;;;;;;2.85;1.13;;;40.30;31.70;;;;;;6210457;28;20042;-82
2022/06/11 06:03:26;;;;;;;2.70;0.77;;;40.40;31.20;;;;;;6209581;28;20060;-82
2022/06/11 06:06:28;;;;;;;2.83;0.70;;;40.70;30.70;;;;;;6208354;28;20046;-83
2022/06/11 06:09:31;;;;;;;3.28;0.85;;;41.30;30.30;;;;;;6208527;28;20057;-83
2022/06/11 06:12:33;;;;;;;3.17;0.47;;;41.60;30.00;;;;;;6211758;28;20093;-83
2022/06/11 06:15:35;;;;;;;2.17;0.70;;;41.60;29.70;;;;;;6216276;28;20057;-83
2022/06/11 06:18:37;;;;;;;2.17;0.55;;;41.60;29.80;;;;;;6213921;28;20486;-80
2022/06/11 06:21:39;;;;;;;2.60;0.55;;;42.00;29.50;;;;;;6213986;28;20515;-80
2022/06/11 06:24:47;;;;;;;1.75;0.55;;;42.10;29.40;;;;;;6218151;28;20054;-80
2022/06/11 06:27:49;;;;;;;2.78;0.65;;;42.50;29.10;;;;;;6228969;28;20049;-83
2022/06/11 06:30:50;;;;;;;2.35;0.65;;;42.80;28.80;;;;;;6240989;28;20187;-83
2022/06/11 06:33:53;;;;;;;5.85;1.05;;;42.90;28.70;;;;;;6240017;28;20050;-83
2022/06/11 06:36:54;;;;;;;5.88;0.80;;;42.70;28.80;;;;;;6241506;28;20046;-83
2022/06/11 06:39:57;;;;;;;5.50;0.68;;;42.40;28.90;;;;;;6242296;28;20058;-83
2022/06/11 06:42:59;;;;;;;5.90;1.08;;;41.90;29.40;;;;;;6241596;28;20056;-83
2022/06/11 06:46:01;;;;;;;5.00;0.98;;;41.60;29.30;;;;;;6236271;28;20042;-82
2022/06/11 06:49:03;;;;;;;3.42;0.70;;;41.30;29.60;;;;;;6216723;28;20058;-80
2022/06/11 06:52:05;;;;;;;2.70;0.65;;;41.40;29.60;;;;;;6214294;28;20050;-80
2022/06/11 06:55:09;;;;;;;2.85;0.90;;;41.40;29.40;;;;;;6214257;28;20053;-80
2022/06/11 06:58:11;;;;;;;5.28;0.88;;;41.40;29.50;;;;;;6213728;28;20046;-80
2022/06/11 07:01:12;;;;;;;1.52;0.60;;;41.60;29.50;;;;;;6215708;28;20057;-80
2022/06/11 07:04:14;;;;;;;5.20;0.70;;;42.00;29.00;;;;;;6216244;28;20046;-80
2022/06/11 07:07:17;;;;;;;2.65;0.63;;;42.10;29.10;;;;;;6217303;28;20065;-80
2022/06/11 07:10:22;;;;;;;3.50;0.55;;;42.30;29.00;;;;;;6217243;28;20046;-80
2022/06/11 07:13:24;;;;;;;2.13;0.77;;;42.80;28.60;;;;;;6216748;28;20052;-81
2022/06/11 07:16:30;;;;;;;2.58;0.68;;;43.40;28.50;;;;;;6216879;28;20038;-80
2022/06/11 07:19:39;;;;;;;3.40;0.68;;;43.40;28.00;;;;;;6217165;28;20046;-81
2022/06/11 07:22:44;;;;;;;4.13;0.50;;;43.10;28.10;;;;;;6216970;28;20053;-80
2022/06/11 07:25:51;;;;;;;4.78;0.95;;;43.40;27.90;;;;;;6213049;28;20050;-80
2022/06/11 07:29:09;;;;;;;4.20;0.85;;;43.90;27.80;;;;;;6213429;28;20042;-80
2022/06/11 07:32:14;;;;;;;7.43;2.53;;;44.00;27.70;;;;;;6214489;28;20266;-81
2022/06/11 07:35:17;;;;;;;2.80;0.65;;;44.30;27.70;;;;;;6235271;28;20053;-81
2022/06/11 07:38:21;;;;;;;4.35;0.82;;;44.40;27.20;;;;;;6239448;28;20060;-80
2022/06/11 07:41:24;;;;;;;3.58;0.50;;;44.30;27.20;;;;;;6238506;28;20050;-80
2022/06/11 07:44:26;;;;;;;1.25;0.77;;;44.10;27.10;;;;;;6238370;28;20046;-80
2022/06/11 07:50:50;;;;;;;4.47;1.00;;;43.90;27.10;;;;;;6224342;28;20129;-80
2022/06/11 07:53:52;;;;;;;1.60;0.40;;;44.20;27.10;;;;;;6226065;28;20054;-80
2022/06/11 07:56:56;;;;;;;3.25;0.43;;;44.30;27.20;;;;;;6225897;28;20042;-80
2022/06/11 07:59:57;;;;;;;1.05;0.40;;;44.40;27.10;;;;;;6215159;28;20043;-80
2022/06/11 08:02:59;;;;;;;2.25;0.73;;;44.40;26.80;;;;;;6210763;28;20148;-81
2022/06/11 08:06:02;;;;;;;2.08;0.70;;;44.30;27.00;;;;;;6222879;28;20054;-80
2022/06/11 08:09:04;;;;;;;3.90;0.50;;;44.50;26.70;;;;;;6218544;28;20497;-81
2022/06/11 08:12:08;;;;;;;4.35;1.10;;;43.00;26.80;;;;;;6203493;28;20053;-80
2022/06/11 08:15:11;;;;;;;2.63;0.50;;;40.20;28.30;;;;;;6205035;28;20079;-81
2022/06/11 08:18:13;;;;;;;2.88;0.80;;;37.70;29.90;;;;;;6201693;28;20054;-80
2022/06/11 08:21:15;;;;;;;2.28;0.60;;;35.80;32.30;;;;;;6203122;28;20042;-82
2022/06/11 08:24:17;;;;;;;2.47;0.63;;;34.60;33.90;;;;;;6202817;28;20050;-81
2022/06/11 08:27:20;;;;;;;4.88;0.70;;;33.80;35.00;;;;;;6202676;28;20047;-81
2022/06/11 08:30:23;;;;;;;6.97;1.85;;;33.10;35.30;;;;;;6217042;28;20041;-81
2022/06/11 08:33:25;;;;;;;3.95;1.00;;;32.50;36.50;;;;;;6219957;28;20038;-81
2022/06/11 08:36:27;;;;;;;2.92;0.65;;;32.20;37.00;;;;;;6226212;28;20046;-81
2022/06/11 08:39:29;;;;;;;3.60;0.80;;;32.00;37.20;;;;;;6226629;28;20057;-81
2022/06/11 08:42:36;;;;;;;9.52;1.13;;;31.80;37.50;;;;;;6225783;28;20049;-81
2022/06/11 08:45:43;;;;;;;1.00;0.63;;;31.60;37.60;;;;;;6226374;28;20060;-81
2022/06/11 08:48:46;;;;;;;21.65;4.90;;;31.60;37.60;;;;;;6220845;28;20520;-82
2022/06/11 08:51:52;;;;;;;2.40;0.70;;;31.40;37.90;;;;;;6200682;28;20431;-81
2022/06/11 08:54:54;;;;;;;8.77;1.17;;;31.20;38.40;;;;;;6201371;28;20060;-81
2022/06/11 08:58:06;;;;;;;2.78;0.90;;;31.20;38.50;;;;;;6200979;28;20057;-81
2022/06/11 09:01:16;;;;;;;8.95;1.13;;;31.30;38.30;;;;;;6217973;28;20049;-82
2022/06/11 09:04:35;;;;;;;2.40;0.90;;;31.40;37.80;;;;;;6209555;28;20057;-81
2022/06/11 09:07:50;;;;;;;4.40;0.60;;;31.50;37.80;;;;;;6211181;28;20485;-81
2022/06/11 09:11:11;;;;;;;2.97;0.70;;;31.60;37.60;;;;;;6211146;28;20062;-81
2022/06/11 09:14:51;;;;;;;1.10;0.47;;;31.60;37.60;;;;;;6205555;28;20520;-80
2022/06/11 09:18:22;;;;;;;3.33;0.70;;;31.70;37.40;;;;;;6197808;28;20056;-81
2022/06/11 09:21:43;;;;;;;2.90;0.60;;;31.90;36.60;;;;;;6210774;28;20054;-81
2022/06/11 09:24:58;;;;;;;3.70;0.80;;;31.90;36.70;;;;;;6210881;28;20424;-81
2022/06/11 09:28:07;;;;;;;1.23;0.30;;;32.00;36.50;;;;;;6210933;28;20050;-81
2022/06/11 09:31:16;;;;;;;2.85;0.70;;;32.10;36.70;;;;;;6226349;28;20057;-81
2022/06/11 09:34:25;;;;;;;2.08;0.70;;;32.20;36.40;;;;;;6209094;28;20070;-82
2022/06/11 09:37:37;;;;;;;8.10;1.08;;;32.30;35.90;;;;;;6210643;28;20147;-81
2022/06/11 09:40:41;;;;;;;5.00;0.65;;;32.30;35.80;;;;;;6209135;28;20050;-81
2022/06/11 09:43:52;;;;;;;1.90;0.47;;;32.30;35.80;;;;;;6211407;28;20042;-80
2022/06/11 09:54:52;;;;;;;2.38;0.45;;;32.60;35.30;;;;;;6025057;29;20523;-84
2022/06/11 10:09:46;;;;;;;3.70;0.88;;;33.00;35.50;;;;;;6174010;29;20051;-84
2022/06/11 10:13:09;;;;;;;4.32;0.70;;;34.30;33.90;;;;;;6151514;29;20071;-85
2022/06/11 10:25:12;;;;;;;3.92;0.55;;;34.90;32.70;;;;;;6214439;28;20038;-84
2022/06/11 10:31:59;;;;;;;2.70;0.50;;;33.50;33.70;;;;;;6191636;28;20042;-83
2022/06/11 10:35:05;;;;;;;1.85;0.50;;;32.70;34.90;;;;;;6208426;28;20242;-85
2022/06/11 10:38:36;;;;;;;2.60;0.60;;;32.60;35.30;;;;;;6201784;28;20042;-82
2022/06/11 10:42:28;;;;;;;5.97;0.73;;;32.80;35.60;;;;;;6228954;28;20058;-81
2022/06/11 10:45:32;;;;;;;1.88;0.50;;;33.10;35.80;;;;;;6201167;28;20129;-82
2022/06/11 10:48:47;;;;;;;6.13;0.47;;;33.30;35.10;;;;;;6189470;28;20058;-84
2022/06/11 10:51:57;;;;;;;2.10;0.40;;;33.50;34.80;;;;;;6197649;28;20047;-85
2022/06/11 10:54:59;;;;;;;1.83;0.40;;;33.70;34.60;;;;;;6200093;28;20055;-83
2022/06/11 10:58:11;;;;;;;2.58;0.45;;;33.80;34.60;;;;;;6200038;28;20048;-83
2022/06/11 11:01:21;;;;;;;3.00;0.40;;;33.90;34.40;;;;;;6205257;28;20038;-84
2022/06/11 11:04:31;;;;;;;3.95;0.50;;;34.00;34.10;;;;;;6203595;28;20043;-84
2022/06/11 11:07:45;;;;;;;3.30;0.50;;;34.20;34.20;;;;;;6204245;28;20062;-84
2022/06/11 11:10:50;;;;;;;3.30;0.40;;;34.40;33.80;;;;;;6211277;28;20121;-83
2022/06/11 11:14:04;;;;;;;3.67;0.50;;;34.60;33.90;;;;;;6209299;28;20050;-83
2022/06/11 11:17:17;;;;;;;3.15;0.68;;;34.90;33.20;;;;;;6208645;28;20049;-83
2022/06/11 11:20:32;;;;;;;2.45;0.50;;;35.00;33.30;;;;;;6208834;28;20050;-85
2022/06/11 11:23:39;;;;;;;3.20;0.65;;;35.10;33.00;;;;;;6208050;28;20061;-82
2022/06/11 11:26:43;;;;;;;4.10;0.50;;;35.20;33.00;;;;;;6209322;28;20129;-84
2022/06/11 11:33:28;;;;;;;6.30;0.85;;;35.50;32.20;;;;;;6181867;28;20059;-83
2022/06/11 11:36:32;;;;;;;5.97;0.40;;;35.50;32.30;;;;;;6211007;28;20046;-84
2022/06/11 11:39:35;;;;;;;2.25;0.73;;;35.60;32.30;;;;;;6210185;28;20062;-83
2022/06/11 11:42:41;;;;;;;2.60;0.40;;;35.80;31.60;;;;;;6206281;28;20054;-86
2022/06/11 11:45:45;;;;;;;1.00;0.40;;;35.90;31.80;;;;;;6210194;28;20046;-86
2022/06/11 11:48:52;;;;;;;3.80;0.40;;;35.90;31.70;;;;;;6207261;28;20042;-84
2022/06/11 11:51:56;;;;;;;;;;;35.80;32.30;;;;;;6204992;28;20057;-86
2022/06/11 11:55:11;;;;;;;4.40;0.70;;;35.90;32.40;;;;;;6204886;28;19940;-85
2022/06/11 11:58:17;;;;;;;4.50;0.57;;;35.90;31.80;;;;;;6203032;28;20053;-84
2022/06/11 12:01:19;;;;;;;3.55;0.50;;;35.80;31.90;;;;;;6203484;28;20042;-85
2022/06/11 12:07:56;;;;;;;3.35;0.50;;;36.10;31.80;;;;;;6183752;28;20073;-87
2022/06/11 12:11:01;;;;;;;2.85;0.40;;;36.30;31.80;;;;;;6204518;28;20208;-85
2022/06/11 12:14:13;;;;;;;1.73;0.30;;;36.40;31.60;;;;;;6193706;28;20050;-89
2022/06/11 12:17:27;;;;;;;3.47;0.30;;;36.30;31.40;;;;;;6180453;28;20053;-85
2022/06/11 12:20:36;;;;;;;1.70;0.35;;;36.40;31.40;;;;;;6180535;28;20119;-85
2022/06/11 12:28:02;;;;;;;3.60;0.85;;;36.50;31.40;;;;;;6193744;28;20073;-86
2022/06/11 12:32:00;;;;;;;2.40;0.35;;;36.70;31.40;;;;;;6197252;28;20245;-85
2022/06/11 12:35:48;;;;;;;2.25;0.47;;;36.90;31.00;;;;;;6205128;28;20465;-85
2022/06/11 12:54:45;;;;;;;4.03;0.55;;;37.30;30.50;;;;;;6122561;28;20049;-86
2022/06/11 13:01:30;;;;;;;3.35;0.60;;;37.90;30.60;;;;;;6191216;28;20046;-87
2022/06/11 13:08:55;;;;;;;1.77;0.30;;;37.90;30.50;;;;;;6079009;29;20104;-84
2022/06/11 13:12:36;;;;;;;4.68;0.63;;;37.70;30.30;;;;;;6109698;28;20063;-86
2022/06/11 13:15:50;;;;;;;2.38;0.40;;;37.60;30.40;;;;;;6196133;28;20051;-84
2022/06/11 13:19:09;;;;;;;1.85;0.40;;;37.70;30.50;;;;;;6199654;28;20513;-85
2022/06/11 13:22:31;;;;;;;1.70;0.63;;;37.70;30.50;;;;;;6205185;28;20053;-84
2022/06/11 13:25:38;;;;;;;2.70;0.70;;;37.70;30.50;;;;;;6207449;28;20139;-85
2022/06/11 13:29:23;;;;;;;2.47;0.50;;;37.80;30.40;;;;;;6207501;28;20441;-85
2022/06/11 13:48:08;;;;;;;3.50;0.57;;;37.50;30.30;;;;;;6161540;28;20530;-85
2022/06/11 14:02:46;;;;;;;1.85;0.40;;;37.80;30.50;;;;;;6181323;28;20124;-85
2022/06/11 14:05:51;;;;;;;1.80;0.40;;;37.70;30.70;;;;;;6209045;28;20050;-85
2022/06/11 14:13:03;;;;;;;3.85;0.25;;;37.60;30.00;;;;;;6204429;28;20057;-84
2022/06/11 14:16:37;;;;;;;4.43;0.73;;;37.60;30.20;;;;;;6201851;28;20584;-84
2022/06/11 14:19:42;;;;;;;1.17;0.35;;;37.60;31.00;;;;;;6219729;28;20058;-84
2022/06/11 14:22:55;;;;;;;2.15;0.45;;;37.60;30.20;;;;;;6205495;28;20399;-84
2022/06/11 14:26:00;;;;;;;2.03;0.32;;;37.50;30.20;;;;;;6209316;28;20046;-84
2022/06/11 14:29:03;;;;;;;2.80;0.50;;;37.40;30.10;;;;;;6209520;28;20057;-83
2022/06/11 14:32:27;;;;;;;2.08;0.30;;;37.40;30.20;;;;;;6210474;28;20073;-84
2022/06/11 14:35:40;;;;;;;1.73;0.47;;;37.60;30.60;;;;;;6209788;28;20500;-84
2022/06/11 14:42:12;;;;;;;2.60;0.60;;;37.60;30.40;;;;;;6206289;28;20046;-84
2022/06/11 14:45:43;;;;;;;2.10;0.30;;;37.50;30.10;;;;;;6210914;28;20120;-84
2022/06/11 14:48:56;;;;;;;1.58;0.38;;;37.40;30.00;;;;;;6203747;28;20113;-85
2022/06/11 14:52:31;;;;;;;2.78;0.50;;;37.30;30.10;;;;;;6223912;28;20054;-83
2022/06/11 15:03:46;;;;;;;3.40;0.20;;;37.60;29.30;;;;;;6205349;28;20053;-85
2022/06/11 15:23:47;;;;;;;5.78;0.68;;;36.90;30.00;;;;;;5924179;30;20548;-85
2022/06/11 15:27:05;;;;;;;1.95;0.40;;;36.70;30.10;;;;;;5890920;29;20171;-85
2022/06/11 15:30:33;;;;;;;3.45;0.50;;;36.60;30.00;;;;;;5970687;29;20817;-85
2022/06/11 15:33:41;;;;;;;2.15;0.47;;;36.70;30.40;;;;;;6076802;28;20074;-85
2022/06/11 15:37:26;;;;;;;3.28;0.50;;;36.60;30.00;;;;;;6131923;29;20131;-85
2022/06/11 15:44:58;;;;;;;2.42;0.63;;;36.50;31.10;;;;;;6120159;29;20047;-85
2022/06/11 15:48:29;;;;;;;2.30;0.52;;;36.60;31.00;;;;;;6121199;29;20079;-84
2022/06/11 15:51:34;;;;;;;1.60;0.40;;;36.60;30.50;;;;;;6162063;28;20046;-85
2022/06/11 16:01:54;;;;;;;1.50;0.50;;;36.60;30.80;;;;;;6220945;28;20131;-85
2022/06/11 16:04:57;;;;;;;1.27;0.40;;;36.40;30.50;;;;;;6228983;28;20045;-85
2022/06/11 16:08:00;;;;;;;1.20;0.38;;;36.20;30.60;;;;;;6231072;28;20110;-83
2022/06/11 16:11:08;;;;;;;2.97;0.90;;;36.10;30.90;;;;;;6222261;28;20477;-86
2022/06/11 16:14:17;;;;;;;2.00;0.40;;;36.00;31.20;;;;;;6224784;28;20477;-86
2022/06/11 16:17:22;;;;;;;1.80;0.50;;;35.80;30.80;;;;;;6225284;28;20046;-84
2022/06/11 16:20:29;;;;;;;4.25;0.28;;;35.70;30.70;;;;;;6225902;28;20056;-85
2022/06/11 16:23:34;;;;;;;6.50;0.60;;;35.70;31.20;;;;;;6230633;28;20106;-85
2022/06/11 16:26:39;;;;;;;3.17;0.80;;;35.50;31.70;;;;;;6229544;28;20057;-86
2022/06/11 16:29:52;;;;;;;2.35;0.70;;;35.60;31.70;;;;;;6227340;28;20138;-85
2022/06/11 16:32:58;;;;;;;1.70;0.70;;;35.70;31.40;;;;;;6229943;28;20042;-85
2022/06/11 16:36:02;;;;;;;1.67;0.40;;;35.60;31.10;;;;;;6243094;28;20053;-84
2022/06/11 16:39:07;;;;;;;3.17;0.60;;;35.80;31.40;;;;;;6225032;28;20054;-87
2022/06/11 16:45:35;;;;;;;4.97;0.80;;;35.20;31.60;;;;;;6223849;28;20054;-87
2022/06/11 16:48:47;;;;;;;1.90;0.52;;;34.80;31.80;;;;;;6217457;28;20408;-85
2022/06/11 16:58:40;;;;;;;2.38;0.47;;;34.20;33.10;;;;;;6225117;28;20437;-84
2022/06/11 17:01:44;;;;;;;1.35;0.52;;;34.10;33.00;;;;;;6222239;28;20049;-84
2022/06/11 17:04:56;;;;;;;4.78;0.75;;;34.00;33.40;;;;;;6218304;28;20080;-84
2022/06/11 17:08:03;;;;;;;2.00;0.43;;;34.00;33.80;;;;;;6200245;28;20077;-86
2022/06/11 17:11:05;;;;;;;;;;;34.00;33.50;;;;;;6199940;28;20056;-85
2022/06/11 17:14:17;;;;;;;4.93;1.00;;;33.90;33.20;;;;;;6199473;28;19967;-83
2022/06/11 17:17:25;;;;;;;2.78;0.73;;;33.70;33.20;;;;;;6200670;28;20452;-85
2022/06/11 17:20:34;;;;;;;6.15;0.70;;;33.50;33.10;;;;;;6202826;28;20058;-84
2022/06/11 17:27:17;;;;;;;2.13;0.30;;;33.00;33.50;;;;;;6200435;28;20050;-85
2022/06/11 17:30:21;;;;;;;3.42;0.55;;;32.70;34.20;;;;;;6206771;28;20052;-87
2022/06/11 17:33:23;;;;;;;1.98;0.43;;;32.30;34.40;;;;;;6215668;28;20037;-87
2022/06/11 17:36:26;;;;;;;3.25;0.63;;;31.90;35.00;;;;;;6224786;28;20058;-87
2022/06/11 17:39:32;;;;;;;3.20;0.68;;;31.60;35.20;;;;;;6222843;28;20053;-88
2022/06/11 17:42:34;;;;;;;2.60;0.45;;;31.30;36.10;;;;;;6222646;28;20046;-87
2022/06/11 17:45:36;;;;;;;2.28;0.93;;;31.10;35.70;;;;;;6222388;28;20424;-88
2022/06/11 17:48:39;;;;;;;1.58;0.40;;;30.70;36.00;;;;;;6222570;28;20497;-88
2022/06/11 17:51:44;;;;;;;1.45;0.50;;;30.50;36.60;;;;;;6225753;28;20188;-88
2022/06/11 17:54:49;;;;;;;2.42;0.55;;;30.30;37.50;;;;;;6222354;28;20053;-87
2022/06/11 17:57:52;;;;;;;0.90;0.40;;;30.10;37.60;;;;;;6222130;28;20047;-87
2022/06/11 18:00:54;;;;;;;1.27;0.57;;;29.90;38.10;;;;;;6222243;28;20046;-87
2022/06/11 18:03:56;;;;;;;1.70;0.47;;;29.70;38.40;;;;;;6201246;28;20133;-87
2022/06/11 18:06:59;;;;;;;1.30;0.52;;;29.50;40.10;;;;;;6197896;28;20051;-87
2022/06/11 18:10:01;;;;;;;5.07;0.45;;;29.30;40.40;;;;;;6198653;28;20149;-86
2022/06/11 18:13:04;;;;;;;1.42;0.60;;;29.20;41.80;;;;;;6198474;28;20056;-87
2022/06/11 18:16:08;;;;;;;1.23;0.40;;;29.00;41.40;;;;;;6191647;28;20049;-87
2022/06/11 18:19:12;;;;;;;2.75;0.82;;;28.80;41.70;;;;;;6209431;28;20048;-86
2022/06/11 18:25:35;;;;;;;4.22;2.20;;;28.50;43.20;;;;;;6206082;28;20046;-86
2022/06/11 18:28:36;;;;;;;7.03;2.78;;;28.30;44.40;;;;;;6208805;28;20386;-86
2022/06/11 18:31:39;;;;;;;2.95;0.50;;;28.20;45.20;;;;;;6221728;28;20493;-86
2022/06/11 18:34:41;;;;;;;5.43;0.75;;;28.00;45.80;;;;;;6230603;28;20056;-85
2022/06/11 18:37:45;;;;;;;4.65;0.52;;;27.90;46.70;;;;;;6230019;28;20536;-86
2022/06/11 18:40:46;;;;;;;1.27;0.50;;;27.70;47.40;;;;;;6230719;28;20056;-85
2022/06/11 18:43:48;;;;;;;2.45;0.45;;;27.50;48.30;;;;;;6231263;28;20050;-87
2022/06/11 18:46:50;;;;;;;4.15;1.48;;;27.40;48.90;;;;;;6230809;28;20046;-87
2022/06/11 18:49:52;;;;;;;4.40;0.57;;;27.20;49.70;;;;;;6230264;28;20420;-88
2022/06/11 18:57:06;;;;;;;3.95;0.57;;;26.80;52.70;;;;;;6127471;29;20048;-89
2022/06/11 19:00:27;;;;;;;2.35;0.68;;;26.50;54.00;;;;;;6188045;28;20100;-87
2022/06/11 19:11:09;;;;;;;4.25;0.73;;;25.90;57.20;;;;;;6202330;28;20139;-84
2022/06/11 19:22:41;;;;;;;1.45;0.55;;;25.10;60.10;;;;;;6164784;28;20046;-86
2022/06/11 19:26:14;;;;;;;1.27;0.60;;;24.90;61.50;;;;;;6199794;28;20081;-86